sensor_id;sensor_type;location;lat;lon;timestamp;temperature;humidity
17619;DHT22;8928;51.678;6.074;2023-02-01T00:02:43;4.00;99.90
17619;DHT22;8928;51.678;6.074;2023-02-01T00:05:30;4.00;99.90
17619;DHT22;8928;51.678;6.074;2023-02-01T00:08:18;4.00;99.90
17619;DHT22;8928;51.678;6.074;2023-02-01T00:11:07;4.00;99.90
17619;DHT22;8928;51.678;6.074;2023-02-01T00:13:54;4.10;99.90
17619;DHT22;8928;51.678;6.074;2023-02-01T00:16:41;4.20;99.90
17619;DHT22;8928;51.678;6.074;2023-02-01T00:19:28;4.20;99.90
17619;DHT22;8928;51.678;6.074;2023-02-01T00:22:15;4.30;99.90
17619;DHT22;8928;51.678;6.074;2023-02-01T00:25:04;4.40;99.90
17619;DHT22;8928;51.678;6.074;2023-02-01T00:27:51;4.40;99.90
17619;DHT22;8928;51.678;6.074;2023-02-01T00:30:38;4.50;99.90
17619;DHT22;8928;51.678;6.074;2023-02-01T00:33:25;4.60;99.90
17619;DHT22;8928;51.678;6.074;2023-02-01T00:36:12;4.70;99.90
17619;DHT22;8928;51.678;6.074;2023-02-01T00:38:59;4.70;99.90
17619;DHT22;8928;51.678;6.074;2023-02-01T00:41:48;4.70;99.90
17619;DHT22;8928;51.678;6.074;2023-02-01T00:44:35;4.80;99.90
17619;DHT22;8928;51.678;6.074;2023-02-01T00:47:22;4.80;99.90
17619;DHT22;8928;51.678;6.074;2023-02-01T00:50:10;4.80;99.90
17619;DHT22;8928;51.678;6.074;2023-02-01T00:52:57;4.90;99.90
17619;DHT22;8928;51.678;6.074;2023-02-01T00:55:44;4.90;99.90
17619;DHT22;8928;51.678;6.074;2023-02-01T00:58:33;4.80;99.90
17619;DHT22;8928;51.678;6.074;2023-02-01T01:01:22;4.70;99.90
17619;DHT22;8928;51.678;6.074;2023-02-01T01:04:09;4.80;99.90
17619;DHT22;8928;51.678;6.074;2023-02-01T01:06:57;4.80;99.90
17619;DHT22;8928;51.678;6.074;2023-02-01T01:09:44;4.80;99.90
17619;DHT22;8928;51.678;6.074;2023-02-01T01:12:31;4.90;99.90
17619;DHT22;8928;51.678;6.074;2023-02-01T01:15:19;4.90;99.90
17619;DHT22;8928;51.678;6.074;2023-02-01T01:18:07;4.90;99.90
17619;DHT22;8928;51.678;6.074;2023-02-01T01:20:54;4.90;99.90
17619;DHT22;8928;51.678;6.074;2023-02-01T01:23:42;4.90;99.90
17619;DHT22;8928;51.678;6.074;2023-02-01T01:26:30;4.90;99.90
17619;DHT22;8928;51.678;6.074;2023-02-01T01:29:17;4.90;99.90
17619;DHT22;8928;51.678;6.074;2023-02-01T01:32:05;4.90;99.90
17619;DHT22;8928;51.678;6.074;2023-02-01T01:34:52;4.90;99.90
17619;DHT22;8928;51.678;6.074;2023-02-01T01:37:39;4.80;99.90
17619;DHT22;8928;51.678;6.074;2023-02-01T01:40:27;4.70;99.90
17619;DHT22;8928;51.678;6.074;2023-02-01T01:43:15;4.70;99.90
17619;DHT22;8928;51.678;6.074;2023-02-01T01:46:02;4.60;99.90
17619;DHT22;8928;51.678;6.074;2023-02-01T01:48:55;4.50;99.90
17619;DHT22;8928;51.678;6.074;2023-02-01T01:51:45;4.50;99.90
17619;DHT22;8928;51.678;6.074;2023-02-01T01:54:37;4.50;99.90
17619;DHT22;8928;51.678;6.074;2023-02-01T01:57:27;4.50;99.90
17619;DHT22;8928;51.678;6.074;2023-02-01T02:00:19;4.50;99.90
17619;DHT22;8928;51.678;6.074;2023-02-01T02:03:13;4.50;99.90
17619;DHT22;8928;51.678;6.074;2023-02-01T02:06:05;4.40;99.90
17619;DHT22;8928;51.678;6.074;2023-02-01T02:08:59;4.40;99.90
17619;DHT22;8928;51.678;6.074;2023-02-01T02:11:46;4.40;99.90
17619;DHT22;8928;51.678;6.074;2023-02-01T02:14:33;4.30;99.90
17619;DHT22;8928;51.678;6.074;2023-02-01T02:17:31;4.40;99.90
17619;DHT22;8928;51.678;6.074;2023-02-01T02:20:40;4.30;99.90
17619;DHT22;8928;51.678;6.074;2023-02-01T02:24:10;4.30;99.90
17619;DHT22;8928;51.678;6.074;2023-02-01T02:27:19;4.20;99.90
17619;DHT22;8928;51.678;6.074;2023-02-01T02:30:36;4.10;99.90
17619;DHT22;8928;51.678;6.074;2023-02-01T02:33:42;4.10;99.90
17619;DHT22;8928;51.678;6.074;2023-02-01T02:36:39;4.10;99.90
17619;DHT22;8928;51.678;6.074;2023-02-01T02:39:39;4.00;99.90
17619;DHT22;8928;51.678;6.074;2023-02-01T02:42:31;4.00;99.90
17619;DHT22;8928;51.678;6.074;2023-02-01T02:45:42;3.80;99.90
17619;DHT22;8928;51.678;6.074;2023-02-01T02:48:55;3.80;99.90
17619;DHT22;8928;51.678;6.074;2023-02-01T02:51:49;3.80;99.90
17619;DHT22;8928;51.678;6.074;2023-02-01T02:54:56;3.70;99.90
17619;DHT22;8928;51.678;6.074;2023-02-01T02:57:45;3.60;99.90
17619;DHT22;8928;51.678;6.074;2023-02-01T03:00:50;3.60;99.90
17619;DHT22;8928;51.678;6.074;2023-02-01T03:03:57;3.60;99.90
17619;DHT22;8928;51.678;6.074;2023-02-01T03:06:54;3.70;99.90
17619;DHT22;8928;51.678;6.074;2023-02-01T03:09:44;3.70;99.90
17619;DHT22;8928;51.678;6.074;2023-02-01T03:12:34;3.80;99.90
17619;DHT22;8928;51.678;6.074;2023-02-01T03:15:43;3.90;99.90
17619;DHT22;8928;51.678;6.074;2023-02-01T03:18:36;4.00;99.90
17619;DHT22;8928;51.678;6.074;2023-02-01T03:21:33;4.10;99.90
17619;DHT22;8928;51.678;6.074;2023-02-01T03:24:23;4.20;99.90
17619;DHT22;8928;51.678;6.074;2023-02-01T03:27:21;4.20;99.90
17619;DHT22;8928;51.678;6.074;2023-02-01T03:30:16;4.30;99.90
17619;DHT22;8928;51.678;6.074;2023-02-01T03:33:08;4.40;99.90
17619;DHT22;8928;51.678;6.074;2023-02-01T03:36:05;4.40;99.90
17619;DHT22;8928;51.678;6.074;2023-02-01T03:39:01;4.30;99.90
17619;DHT22;8928;51.678;6.074;2023-02-01T03:41:51;4.30;99.90
17619;DHT22;8928;51.678;6.074;2023-02-01T03:44:43;4.30;99.90
17619;DHT22;8928;51.678;6.074;2023-02-01T03:47:36;4.20;99.90
17619;DHT22;8928;51.678;6.074;2023-02-01T03:50:26;4.20;99.90
17619;DHT22;8928;51.678;6.074;2023-02-01T03:53:16;4.20;99.90
17619;DHT22;8928;51.678;6.074;2023-02-01T03:56:06;4.20;99.90
17619;DHT22;8928;51.678;6.074;2023-02-01T03:58:54;4.20;99.90
17619;DHT22;8928;51.678;6.074;2023-02-01T04:01:47;4.20;99.90
17619;DHT22;8928;51.678;6.074;2023-02-01T04:04:34;4.10;99.90
17619;DHT22;8928;51.678;6.074;2023-02-01T04:07:21;4.20;99.90
17619;DHT22;8928;51.678;6.074;2023-02-01T04:10:10;4.20;99.90
17619;DHT22;8928;51.678;6.074;2023-02-01T04:12:58;4.20;99.90
17619;DHT22;8928;51.678;6.074;2023-02-01T04:15:47;4.30;99.90
17619;DHT22;8928;51.678;6.074;2023-02-01T04:18:35;4.30;99.90
17619;DHT22;8928;51.678;6.074;2023-02-01T04:21:22;4.40;99.90
17619;DHT22;8928;51.678;6.074;2023-02-01T04:24:09;4.40;99.90
17619;DHT22;8928;51.678;6.074;2023-02-01T04:26:56;4.30;99.90
17619;DHT22;8928;51.678;6.074;2023-02-01T04:29:46;4.40;99.90
17619;DHT22;8928;51.678;6.074;2023-02-01T04:32:35;4.40;99.90
17619;DHT22;8928;51.678;6.074;2023-02-01T04:35:22;4.50;99.90
17619;DHT22;8928;51.678;6.074;2023-02-01T04:38:09;4.40;99.90
17619;DHT22;8928;51.678;6.074;2023-02-01T04:40:56;4.40;99.90
17619;DHT22;8928;51.678;6.074;2023-02-01T04:43:43;4.40;99.90
17619;DHT22;8928;51.678;6.074;2023-02-01T04:46:31;4.30;99.90
17619;DHT22;8928;51.678;6.074;2023-02-01T04:49:18;4.30;99.90
17619;DHT22;8928;51.678;6.074;2023-02-01T04:52:07;4.20;99.90
17619;DHT22;8928;51.678;6.074;2023-02-01T04:54:54;4.20;99.90
17619;DHT22;8928;51.678;6.074;2023-02-01T04:57:43;4.20;99.90
17619;DHT22;8928;51.678;6.074;2023-02-01T05:00:30;4.20;99.90
17619;DHT22;8928;51.678;6.074;2023-02-01T05:03:18;4.20;99.90
17619;DHT22;8928;51.678;6.074;2023-02-01T05:06:06;4.20;99.90
17619;DHT22;8928;51.678;6.074;2023-02-01T05:08:53;4.20;99.90
17619;DHT22;8928;51.678;6.074;2023-02-01T05:11:40;4.30;99.90
17619;DHT22;8928;51.678;6.074;2023-02-01T05:14:44;4.30;99.90
17619;DHT22;8928;51.678;6.074;2023-02-01T05:17:31;4.40;99.90
17619;DHT22;8928;51.678;6.074;2023-02-01T05:20:20;4.50;99.90
17619;DHT22;8928;51.678;6.074;2023-02-01T05:23:07;4.60;99.90
17619;DHT22;8928;51.678;6.074;2023-02-01T05:25:58;4.70;99.90
17619;DHT22;8928;51.678;6.074;2023-02-01T05:28:45;4.80;99.90
17619;DHT22;8928;51.678;6.074;2023-02-01T05:31:32;4.80;99.90
17619;DHT22;8928;51.678;6.074;2023-02-01T05:34:20;4.80;99.90
17619;DHT22;8928;51.678;6.074;2023-02-01T05:37:08;4.80;99.90
17619;DHT22;8928;51.678;6.074;2023-02-01T05:39:55;4.90;99.90
17619;DHT22;8928;51.678;6.074;2023-02-01T05:42:42;4.90;99.90
17619;DHT22;8928;51.678;6.074;2023-02-01T05:45:29;4.90;99.90
17619;DHT22;8928;51.678;6.074;2023-02-01T05:48:16;4.90;99.90
17619;DHT22;8928;51.678;6.074;2023-02-01T05:51:03;4.90;99.90
17619;DHT22;8928;51.678;6.074;2023-02-01T05:53:52;5.00;99.90
17619;DHT22;8928;51.678;6.074;2023-02-01T05:56:39;5.00;99.90
17619;DHT22;8928;51.678;6.074;2023-02-01T05:59:26;5.00;99.90
17619;DHT22;8928;51.678;6.074;2023-02-01T06:02:13;5.10;99.90
17619;DHT22;8928;51.678;6.074;2023-02-01T06:05:01;5.10;99.90
17619;DHT22;8928;51.678;6.074;2023-02-01T06:07:48;5.10;99.90
17619;DHT22;8928;51.678;6.074;2023-02-01T06:10:37;5.10;99.90
17619;DHT22;8928;51.678;6.074;2023-02-01T06:13:24;5.10;99.90
17619;DHT22;8928;51.678;6.074;2023-02-01T06:16:11;5.10;99.90
17619;DHT22;8928;51.678;6.074;2023-02-01T06:19:01;5.10;99.90
17619;DHT22;8928;51.678;6.074;2023-02-01T06:21:48;5.20;99.90
17619;DHT22;8928;51.678;6.074;2023-02-01T06:24:35;5.10;99.90
17619;DHT22;8928;51.678;6.074;2023-02-01T06:27:23;5.10;99.90
17619;DHT22;8928;51.678;6.074;2023-02-01T06:30:11;5.10;99.90
17619;DHT22;8928;51.678;6.074;2023-02-01T06:32:59;5.20;99.90
17619;DHT22;8928;51.678;6.074;2023-02-01T06:35:46;5.20;99.90
17619;DHT22;8928;51.678;6.074;2023-02-01T06:38:33;5.10;99.90
17619;DHT22;8928;51.678;6.074;2023-02-01T06:41:21;5.10;99.90
17619;DHT22;8928;51.678;6.074;2023-02-01T06:44:09;5.10;99.90
17619;DHT22;8928;51.678;6.074;2023-02-01T06:46:56;5.10;99.90
17619;DHT22;8928;51.678;6.074;2023-02-01T06:49:43;5.10;99.90
17619;DHT22;8928;51.678;6.074;2023-02-01T06:52:30;5.10;99.90
17619;DHT22;8928;51.678;6.074;2023-02-01T06:55:17;5.20;99.90
17619;DHT22;8928;51.678;6.074;2023-02-01T06:58:04;5.20;99.90
17619;DHT22;8928;51.678;6.074;2023-02-01T07:00:52;5.30;99.90
17619;DHT22;8928;51.678;6.074;2023-02-01T07:03:39;5.30;99.90
17619;DHT22;8928;51.678;6.074;2023-02-01T07:06:27;5.30;99.90
17619;DHT22;8928;51.678;6.074;2023-02-01T07:09:14;5.30;99.90
17619;DHT22;8928;51.678;6.074;2023-02-01T07:12:01;5.40;99.90
17619;DHT22;8928;51.678;6.074;2023-02-01T07:14:48;5.40;99.90
17619;DHT22;8928;51.678;6.074;2023-02-01T07:17:37;5.40;99.90
17619;DHT22;8928;51.678;6.074;2023-02-01T07:20:24;5.40;99.90
17619;DHT22;8928;51.678;6.074;2023-02-01T07:23:11;5.40;99.90
17619;DHT22;8928;51.678;6.074;2023-02-01T07:26:00;5.40;99.90
17619;DHT22;8928;51.678;6.074;2023-02-01T07:28:47;5.40;99.90
17619;DHT22;8928;51.678;6.074;2023-02-01T07:31:35;5.40;99.90
17619;DHT22;8928;51.678;6.074;2023-02-01T07:34:26;5.40;99.90
17619;DHT22;8928;51.678;6.074;2023-02-01T07:37:18;5.50;99.90
17619;DHT22;8928;51.678;6.074;2023-02-01T07:40:06;5.50;99.90
17619;DHT22;8928;51.678;6.074;2023-02-01T07:42:53;5.60;99.90
17619;DHT22;8928;51.678;6.074;2023-02-01T07:45:40;5.60;99.90
17619;DHT22;8928;51.678;6.074;2023-02-01T07:48:28;5.70;99.90
17619;DHT22;8928;51.678;6.074;2023-02-01T07:51:17;5.80;99.90
17619;DHT22;8928;51.678;6.074;2023-02-01T07:54:04;5.80;99.90
17619;DHT22;8928;51.678;6.074;2023-02-01T07:56:51;5.80;99.90
17619;DHT22;8928;51.678;6.074;2023-02-01T07:59:38;5.80;99.90
17619;DHT22;8928;51.678;6.074;2023-02-01T08:02:45;5.70;99.90
17619;DHT22;8928;51.678;6.074;2023-02-01T08:05:32;5.70;99.90
17619;DHT22;8928;51.678;6.074;2023-02-01T08:08:21;5.70;99.90
17619;DHT22;8928;51.678;6.074;2023-02-01T08:11:08;5.70;99.90
17619;DHT22;8928;51.678;6.074;2023-02-01T08:13:55;5.80;99.90
17619;DHT22;8928;51.678;6.074;2023-02-01T08:16:42;5.80;99.90
17619;DHT22;8928;51.678;6.074;2023-02-01T08:19:29;5.90;99.90
17619;DHT22;8928;51.678;6.074;2023-02-01T08:22:16;5.90;99.90
17619;DHT22;8928;51.678;6.074;2023-02-01T08:25:06;6.00;99.90
17619;DHT22;8928;51.678;6.074;2023-02-01T08:27:53;6.00;99.90
17619;DHT22;8928;51.678;6.074;2023-02-01T08:30:40;6.00;99.90
17619;DHT22;8928;51.678;6.074;2023-02-01T08:33:27;6.00;99.90
17619;DHT22;8928;51.678;6.074;2023-02-01T08:36:14;6.10;99.90
17619;DHT22;8928;51.678;6.074;2023-02-01T08:39:02;6.20;99.90
17619;DHT22;8928;51.678;6.074;2023-02-01T08:41:55;6.20;99.90
17619;DHT22;8928;51.678;6.074;2023-02-01T08:45:00;6.20;99.90
17619;DHT22;8928;51.678;6.074;2023-02-01T08:47:48;6.30;99.90
17619;DHT22;8928;51.678;6.074;2023-02-01T08:50:35;6.30;99.90
17619;DHT22;8928;51.678;6.074;2023-02-01T08:53:22;6.20;99.90
17619;DHT22;8928;51.678;6.074;2023-02-01T08:56:11;6.20;99.90
17619;DHT22;8928;51.678;6.074;2023-02-01T08:59:00;6.10;99.90
17619;DHT22;8928;51.678;6.074;2023-02-01T09:01:47;6.20;99.90
17619;DHT22;8928;51.678;6.074;2023-02-01T09:04:34;6.20;99.90
17619;DHT22;8928;51.678;6.074;2023-02-01T09:07:21;6.10;99.90
17619;DHT22;8928;51.678;6.074;2023-02-01T09:10:09;6.20;99.90
17619;DHT22;8928;51.678;6.074;2023-02-01T09:12:56;6.20;99.90
17619;DHT22;8928;51.678;6.074;2023-02-01T09:15:45;6.30;99.90
17619;DHT22;8928;51.678;6.074;2023-02-01T09:18:32;6.40;99.90
17619;DHT22;8928;51.678;6.074;2023-02-01T09:21:19;6.50;99.90
17619;DHT22;8928;51.678;6.074;2023-02-01T09:24:06;6.60;99.90
17619;DHT22;8928;51.678;6.074;2023-02-01T09:26:53;6.70;99.90
17619;DHT22;8928;51.678;6.074;2023-02-01T09:29:40;6.70;99.90
17619;DHT22;8928;51.678;6.074;2023-02-01T09:32:29;6.70;99.90
17619;DHT22;8928;51.678;6.074;2023-02-01T09:35:16;6.80;99.90
17619;DHT22;8928;51.678;6.074;2023-02-01T09:38:03;6.80;99.90
17619;DHT22;8928;51.678;6.074;2023-02-01T09:40:50;6.90;99.90
17619;DHT22;8928;51.678;6.074;2023-02-01T09:43:41;6.90;99.90
17619;DHT22;8928;51.678;6.074;2023-02-01T09:46:32;7.00;99.90
17619;DHT22;8928;51.678;6.074;2023-02-01T09:49:26;7.00;99.90
17619;DHT22;8928;51.678;6.074;2023-02-01T09:52:15;7.00;99.90
17619;DHT22;8928;51.678;6.074;2023-02-01T09:55:05;7.10;99.90
17619;DHT22;8928;51.678;6.074;2023-02-01T09:57:55;7.10;99.90
17619;DHT22;8928;51.678;6.074;2023-02-01T10:00:49;7.30;99.90
17619;DHT22;8928;51.678;6.074;2023-02-01T10:03:37;7.40;99.90
17619;DHT22;8928;51.678;6.074;2023-02-01T10:06:38;7.50;99.90
17619;DHT22;8928;51.678;6.074;2023-02-01T10:09:44;7.40;99.90
17619;DHT22;8928;51.678;6.074;2023-02-01T10:13:00;7.50;99.90
17619;DHT22;8928;51.678;6.074;2023-02-01T10:15:58;7.80;99.90
17619;DHT22;8928;51.678;6.074;2023-02-01T10:19:06;7.90;99.90
17619;DHT22;8928;51.678;6.074;2023-02-01T10:22:05;7.80;99.90
17619;DHT22;8928;51.678;6.074;2023-02-01T10:24:58;7.80;99.90
17619;DHT22;8928;51.678;6.074;2023-02-01T10:27:52;8.10;99.90
17619;DHT22;8928;51.678;6.074;2023-02-01T10:30:43;8.40;99.90
17619;DHT22;8928;51.678;6.074;2023-02-01T10:33:33;8.50;99.90
17619;DHT22;8928;51.678;6.074;2023-02-01T10:36:25;8.40;99.90
17619;DHT22;8928;51.678;6.074;2023-02-01T10:39:16;8.10;99.90
17619;DHT22;8928;51.678;6.074;2023-02-01T10:42:03;8.00;99.90
17619;DHT22;8928;51.678;6.074;2023-02-01T10:44:50;7.80;99.90
17619;DHT22;8928;51.678;6.074;2023-02-01T10:47:38;7.70;99.90
17619;DHT22;8928;51.678;6.074;2023-02-01T10:50:34;7.70;99.90
17619;DHT22;8928;51.678;6.074;2023-02-01T10:53:24;7.60;99.90
17619;DHT22;8928;51.678;6.074;2023-02-01T10:56:13;7.60;99.90
17619;DHT22;8928;51.678;6.074;2023-02-01T10:59:02;7.60;99.90
17619;DHT22;8928;51.678;6.074;2023-02-01T11:01:51;7.60;99.90
17619;DHT22;8928;51.678;6.074;2023-02-01T11:04:44;7.50;99.90
17619;DHT22;8928;51.678;6.074;2023-02-01T11:07:31;7.40;99.90
17619;DHT22;8928;51.678;6.074;2023-02-01T11:10:36;7.30;99.90
17619;DHT22;8928;51.678;6.074;2023-02-01T11:13:29;7.30;99.90
17619;DHT22;8928;51.678;6.074;2023-02-01T11:16:18;7.30;99.90
17619;DHT22;8928;51.678;6.074;2023-02-01T11:19:06;7.20;99.90
17619;DHT22;8928;51.678;6.074;2023-02-01T11:21:55;7.20;99.90
17619;DHT22;8928;51.678;6.074;2023-02-01T11:24:46;7.10;99.90
17619;DHT22;8928;51.678;6.074;2023-02-01T11:27:33;7.10;99.90
17619;DHT22;8928;51.678;6.074;2023-02-01T11:30:30;7.10;99.90
17619;DHT22;8928;51.678;6.074;2023-02-01T11:33:20;7.10;99.90
17619;DHT22;8928;51.678;6.074;2023-02-01T11:36:14;7.10;99.90
17619;DHT22;8928;51.678;6.074;2023-02-01T11:39:17;7.10;99.90
17619;DHT22;8928;51.678;6.074;2023-02-01T11:42:12;7.20;99.90
17619;DHT22;8928;51.678;6.074;2023-02-01T11:45:20;7.20;99.90
17619;DHT22;8928;51.678;6.074;2023-02-01T11:48:15;7.30;99.90
17619;DHT22;8928;51.678;6.074;2023-02-01T11:51:19;7.40;99.90
17619;DHT22;8928;51.678;6.074;2023-02-01T11:54:19;7.40;99.90
17619;DHT22;8928;51.678;6.074;2023-02-01T11:57:24;7.40;99.90
17619;DHT22;8928;51.678;6.074;2023-02-01T12:00:30;7.50;99.90
17619;DHT22;8928;51.678;6.074;2023-02-01T12:04:07;7.50;99.90
17619;DHT22;8928;51.678;6.074;2023-02-01T12:07:04;7.60;99.90
17619;DHT22;8928;51.678;6.074;2023-02-01T12:10:01;7.80;99.90
17619;DHT22;8928;51.678;6.074;2023-02-01T12:12:56;7.80;99.90
17619;DHT22;8928;51.678;6.074;2023-02-01T12:15:56;7.50;99.90
17619;DHT22;8928;51.678;6.074;2023-02-01T12:22:23;7.00;99.90
17619;DHT22;8928;51.678;6.074;2023-02-01T12:25:31;6.70;99.90
17619;DHT22;8928;51.678;6.074;2023-02-01T12:28:39;6.60;99.90
17619;DHT22;8928;51.678;6.074;2023-02-01T12:31:38;6.60;99.90
17619;DHT22;8928;51.678;6.074;2023-02-01T12:38:06;6.70;99.90
17619;DHT22;8928;51.678;6.074;2023-02-01T12:41:15;6.90;99.90
17619;DHT22;8928;51.678;6.074;2023-02-01T12:44:10;6.90;99.90
17619;DHT22;8928;51.678;6.074;2023-02-01T12:47:00;7.00;99.90
17619;DHT22;8928;51.678;6.074;2023-02-01T12:49:54;7.10;99.90
17619;DHT22;8928;51.678;6.074;2023-02-01T12:52:47;7.20;99.90
17619;DHT22;8928;51.678;6.074;2023-02-01T12:55:41;7.20;99.90
17619;DHT22;8928;51.678;6.074;2023-02-01T12:58:40;7.30;99.90
17619;DHT22;8928;51.678;6.074;2023-02-01T13:01:33;7.30;99.90
17619;DHT22;8928;51.678;6.074;2023-02-01T13:04:26;7.40;99.90
17619;DHT22;8928;51.678;6.074;2023-02-01T13:07:17;7.40;99.90
17619;DHT22;8928;51.678;6.074;2023-02-01T13:10:12;7.40;99.90
17619;DHT22;8928;51.678;6.074;2023-02-01T13:13:10;7.50;99.90
17619;DHT22;8928;51.678;6.074;2023-02-01T13:16:10;7.50;99.90
17619;DHT22;8928;51.678;6.074;2023-02-01T13:19:05;7.60;99.90
17619;DHT22;8928;51.678;6.074;2023-02-01T13:21:57;7.80;99.90
17619;DHT22;8928;51.678;6.074;2023-02-01T13:24:49;7.90;99.90
17619;DHT22;8928;51.678;6.074;2023-02-01T13:27:38;7.90;99.90
17619;DHT22;8928;51.678;6.074;2023-02-01T13:30:34;8.10;99.90
17619;DHT22;8928;51.678;6.074;2023-02-01T13:33:34;8.10;99.90
17619;DHT22;8928;51.678;6.074;2023-02-01T13:36:45;8.10;99.90
17619;DHT22;8928;51.678;6.074;2023-02-01T13:39:43;8.00;99.90
17619;DHT22;8928;51.678;6.074;2023-02-01T13:42:35;8.10;99.90
17619;DHT22;8928;51.678;6.074;2023-02-01T13:45:31;8.10;99.90
17619;DHT22;8928;51.678;6.074;2023-02-01T13:48:23;8.20;99.90
17619;DHT22;8928;51.678;6.074;2023-02-01T13:51:12;8.20;99.90
17619;DHT22;8928;51.678;6.074;2023-02-01T13:54:00;8.20;99.90
17619;DHT22;8928;51.678;6.074;2023-02-01T13:56:48;8.10;99.90
17619;DHT22;8928;51.678;6.074;2023-02-01T14:00:05;8.10;99.90
17619;DHT22;8928;51.678;6.074;2023-02-01T14:03:15;8.10;99.90
17619;DHT22;8928;51.678;6.074;2023-02-01T14:06:33;8.10;99.90
17619;DHT22;8928;51.678;6.074;2023-02-01T14:09:34;7.90;99.90
17619;DHT22;8928;51.678;6.074;2023-02-01T14:12:43;7.90;99.90
17619;DHT22;8928;51.678;6.074;2023-02-01T14:15:30;7.90;99.90
17619;DHT22;8928;51.678;6.074;2023-02-01T14:18:56;7.90;99.90
17619;DHT22;8928;51.678;6.074;2023-02-01T14:21:48;7.90;99.90
17619;DHT22;8928;51.678;6.074;2023-02-01T14:24:37;7.90;99.90
17619;DHT22;8928;51.678;6.074;2023-02-01T14:27:26;7.90;99.90
17619;DHT22;8928;51.678;6.074;2023-02-01T14:30:16;7.80;99.90
17619;DHT22;8928;51.678;6.074;2023-02-01T14:33:16;7.80;99.90
17619;DHT22;8928;51.678;6.074;2023-02-01T14:36:09;7.80;99.90
17619;DHT22;8928;51.678;6.074;2023-02-01T14:38:57;7.90;99.90
17619;DHT22;8928;51.678;6.074;2023-02-01T14:41:46;7.90;99.90
17619;DHT22;8928;51.678;6.074;2023-02-01T14:44:35;7.80;99.90
17619;DHT22;8928;51.678;6.074;2023-02-01T14:47:32;7.80;99.90
17619;DHT22;8928;51.678;6.074;2023-02-01T14:50:27;7.80;99.90
17619;DHT22;8928;51.678;6.074;2023-02-01T14:53:20;7.80;99.90
17619;DHT22;8928;51.678;6.074;2023-02-01T14:56:14;7.80;99.90
17619;DHT22;8928;51.678;6.074;2023-02-01T14:59:08;7.90;99.90
17619;DHT22;8928;51.678;6.074;2023-02-01T15:01:58;7.90;99.90
17619;DHT22;8928;51.678;6.074;2023-02-01T15:04:54;7.90;99.90
17619;DHT22;8928;51.678;6.074;2023-02-01T15:07:41;7.90;99.90
17619;DHT22;8928;51.678;6.074;2023-02-01T15:10:30;7.90;99.90
17619;DHT22;8928;51.678;6.074;2023-02-01T15:13:20;7.90;99.90
17619;DHT22;8928;51.678;6.074;2023-02-01T15:16:11;7.90;99.90
17619;DHT22;8928;51.678;6.074;2023-02-01T15:19:09;7.90;99.90
17619;DHT22;8928;51.678;6.074;2023-02-01T15:21:58;7.90;99.90
17619;DHT22;8928;51.678;6.074;2023-02-01T15:24:52;7.80;99.90
17619;DHT22;8928;51.678;6.074;2023-02-01T15:27:41;7.70;99.90
17619;DHT22;8928;51.678;6.074;2023-02-01T15:30:29;7.70;99.90
17619;DHT22;8928;51.678;6.074;2023-02-01T15:35:53;7.70;99.90
17619;DHT22;8928;51.678;6.074;2023-02-01T15:38:42;7.70;99.90
17619;DHT22;8928;51.678;6.074;2023-02-01T15:41:29;7.70;99.90
17619;DHT22;8928;51.678;6.074;2023-02-01T15:44:29;7.60;99.90
17619;DHT22;8928;51.678;6.074;2023-02-01T15:47:19;7.40;99.90
17619;DHT22;8928;51.678;6.074;2023-02-01T15:50:14;7.20;99.90
17619;DHT22;8928;51.678;6.074;2023-02-01T15:53:01;7.20;99.90
17619;DHT22;8928;51.678;6.074;2023-02-01T15:55:53;7.20;99.90
17619;DHT22;8928;51.678;6.074;2023-02-01T15:58:42;7.20;99.90
17619;DHT22;8928;51.678;6.074;2023-02-01T16:01:36;7.30;99.90
17619;DHT22;8928;51.678;6.074;2023-02-01T16:04:25;7.30;99.90
17619;DHT22;8928;51.678;6.074;2023-02-01T16:07:25;7.30;99.90
17619;DHT22;8928;51.678;6.074;2023-02-01T16:10:25;7.30;99.90
17619;DHT22;8928;51.678;6.074;2023-02-01T16:13:12;7.40;99.90
17619;DHT22;8928;51.678;6.074;2023-02-01T16:15:59;7.40;99.90
17619;DHT22;8928;51.678;6.074;2023-02-01T16:18:48;7.50;99.90
17619;DHT22;8928;51.678;6.074;2023-02-01T16:21:35;7.50;99.90
17619;DHT22;8928;51.678;6.074;2023-02-01T16:24:22;7.60;99.90
17619;DHT22;8928;51.678;6.074;2023-02-01T16:27:11;7.60;99.90
17619;DHT22;8928;51.678;6.074;2023-02-01T16:29:58;7.60;99.90
17619;DHT22;8928;51.678;6.074;2023-02-01T16:32:45;7.60;99.90
17619;DHT22;8928;51.678;6.074;2023-02-01T16:35:35;7.60;99.90
17619;DHT22;8928;51.678;6.074;2023-02-01T16:38:22;7.60;99.90
17619;DHT22;8928;51.678;6.074;2023-02-01T16:41:12;7.60;99.90
17619;DHT22;8928;51.678;6.074;2023-02-01T16:44:00;7.70;99.90
17619;DHT22;8928;51.678;6.074;2023-02-01T16:46:48;7.70;99.90
17619;DHT22;8928;51.678;6.074;2023-02-01T16:49:35;7.70;99.90
17619;DHT22;8928;51.678;6.074;2023-02-01T16:52:25;7.70;99.90
17619;DHT22;8928;51.678;6.074;2023-02-01T16:55:14;7.80;99.90
17619;DHT22;8928;51.678;6.074;2023-02-01T16:58:01;7.70;99.90
17619;DHT22;8928;51.678;6.074;2023-02-01T17:00:48;7.70;99.90
17619;DHT22;8928;51.678;6.074;2023-02-01T17:03:36;7.70;99.90
17619;DHT22;8928;51.678;6.074;2023-02-01T17:06:25;7.80;99.90
17619;DHT22;8928;51.678;6.074;2023-02-01T17:09:14;7.80;99.90
17619;DHT22;8928;51.678;6.074;2023-02-01T17:12:01;7.80;99.90
17619;DHT22;8928;51.678;6.074;2023-02-01T17:14:49;7.80;99.90
17619;DHT22;8928;51.678;6.074;2023-02-01T17:17:38;7.80;99.90
17619;DHT22;8928;51.678;6.074;2023-02-01T17:20:29;7.80;99.90
17619;DHT22;8928;51.678;6.074;2023-02-01T17:23:17;7.80;99.90
17619;DHT22;8928;51.678;6.074;2023-02-01T17:26:08;7.80;99.90
17619;DHT22;8928;51.678;6.074;2023-02-01T17:28:56;7.70;99.90
17619;DHT22;8928;51.678;6.074;2023-02-01T17:31:46;7.80;99.90
17619;DHT22;8928;51.678;6.074;2023-02-01T17:34:34;7.80;99.90
17619;DHT22;8928;51.678;6.074;2023-02-01T17:37:37;7.90;99.90
17619;DHT22;8928;51.678;6.074;2023-02-01T17:40:24;7.80;99.90
17619;DHT22;8928;51.678;6.074;2023-02-01T17:43:15;7.90;99.90
17619;DHT22;8928;51.678;6.074;2023-02-01T17:46:05;7.80;99.90
17619;DHT22;8928;51.678;6.074;2023-02-01T17:48:56;7.70;99.90
17619;DHT22;8928;51.678;6.074;2023-02-01T17:51:43;7.70;99.90
17619;DHT22;8928;51.678;6.074;2023-02-01T17:54:30;7.70;99.90
17619;DHT22;8928;51.678;6.074;2023-02-01T17:57:18;7.60;99.90
17619;DHT22;8928;51.678;6.074;2023-02-01T18:00:08;7.70;99.90
17619;DHT22;8928;51.678;6.074;2023-02-01T18:02:58;7.70;99.90
17619;DHT22;8928;51.678;6.074;2023-02-01T18:05:46;7.70;99.90
17619;DHT22;8928;51.678;6.074;2023-02-01T18:08:35;7.70;99.90
17619;DHT22;8928;51.678;6.074;2023-02-01T18:11:24;7.70;99.90
17619;DHT22;8928;51.678;6.074;2023-02-01T18:14:11;7.80;99.90
17619;DHT22;8928;51.678;6.074;2023-02-01T18:17:00;7.80;99.90
17619;DHT22;8928;51.678;6.074;2023-02-01T18:19:47;7.90;99.90
17619;DHT22;8928;51.678;6.074;2023-02-01T18:22:34;7.90;99.90
17619;DHT22;8928;51.678;6.074;2023-02-01T18:25:24;7.80;99.90
17619;DHT22;8928;51.678;6.074;2023-02-01T18:28:11;7.80;99.90
17619;DHT22;8928;51.678;6.074;2023-02-01T18:30:59;7.80;99.90
17619;DHT22;8928;51.678;6.074;2023-02-01T18:33:49;7.80;99.90
17619;DHT22;8928;51.678;6.074;2023-02-01T18:36:36;7.80;99.90
17619;DHT22;8928;51.678;6.074;2023-02-01T18:39:23;7.70;99.90
17619;DHT22;8928;51.678;6.074;2023-02-01T18:42:10;7.80;99.90
17619;DHT22;8928;51.678;6.074;2023-02-01T18:44:57;7.90;99.90
17619;DHT22;8928;51.678;6.074;2023-02-01T18:47:46;7.90;99.90
17619;DHT22;8928;51.678;6.074;2023-02-01T18:50:36;7.90;99.90